Terminal Aerodrome Forecast
Issued by NWS Jackson, MS

Home | Current Version | Previous Version | Text Only | Print | Product List | Glossary On
Versions: 1 2 3 4 5 6 7 8 9 10 11 12 13
000
FTUS44 KJAN 280500
TAFGWO
TAF
KGWO 280523Z 2806/2906 23003KT 6SM BR VCTS SCT040CB BKN250
     FM281400 36008KT P6SM SKC
     FM290100 33003KT P6SM SKC=

USA.gov is the U.S. government's official web portal to all federal, state and local government web resources and services.